createdAt,value
2018-08-01T00:01:10.211Z,22.30
2018-08-01T00:03:38.726Z,22.30
2018-08-01T00:06:07.496Z,22.20
2018-08-01T00:08:36.066Z,22.20
2018-08-01T00:11:04.570Z,22.20
2018-08-01T00:13:33.056Z,22.10
2018-08-01T00:16:01.547Z,22.10
2018-08-01T00:18:30.112Z,22.10
2018-08-01T00:20:58.577Z,22.10
2018-08-01T00:23:27.078Z,22.00
2018-08-01T00:25:55.648Z,22.00
2018-08-01T00:28:24.107Z,22.00
2018-08-01T00:30:52.600Z,21.90
2018-08-01T00:33:21.115Z,22.00
2018-08-01T00:35:49.597Z,22.10
2018-08-01T00:38:18.078Z,22.00
2018-08-01T00:40:46.539Z,22.00
2018-08-01T00:43:15.040Z,22.00
2018-08-01T00:45:43.507Z,21.90
2018-08-01T00:48:12.043Z,21.90
2018-08-01T00:50:40.502Z,21.80
2018-08-01T00:53:09.023Z,21.90
2018-08-01T00:55:37.487Z,21.90
2018-08-01T00:58:05.956Z,21.90
2018-08-01T01:00:34.547Z,21.80
2018-08-01T01:03:03.018Z,21.80
2018-08-01T01:05:31.519Z,21.80
2018-08-01T01:08:00.108Z,21.80
2018-08-01T01:10:28.608Z,21.80
2018-08-01T01:12:57.088Z,21.70
2018-08-01T01:15:25.639Z,21.70
2018-08-01T01:17:54.105Z,21.70
2018-08-01T01:20:22.561Z,21.80
2018-08-01T01:22:51.092Z,21.80
2018-08-01T01:25:19.557Z,21.80
2018-08-01T01:27:48.052Z,21.70
2018-08-01T01:30:16.634Z,21.60
2018-08-01T01:32:45.107Z,21.50
2018-08-01T01:35:13.549Z,21.50
2018-08-01T01:37:42.039Z,21.50
2018-08-01T01:40:10.515Z,21.50
2018-08-01T01:42:38.991Z,21.40
2018-08-01T01:45:07.490Z,21.40
2018-08-01T01:47:35.994Z,21.40
2018-08-01T01:50:04.579Z,21.30
2018-08-01T01:52:45.546Z,21.30
2018-08-01T01:55:14.024Z,21.30
2018-08-01T01:57:42.583Z,21.20
2018-08-01T02:00:11.230Z,21.20
2018-08-01T02:02:40.496Z,21.20
2018-08-01T02:05:08.950Z,21.10
2018-08-01T02:07:37.675Z,21.10
2018-08-01T02:10:11.455Z,21.20
2018-08-01T02:12:39.954Z,21.10
2018-08-01T02:15:08.468Z,21.10
2018-08-01T02:17:36.901Z,21.30
2018-08-01T02:20:05.369Z,21.30
2018-08-01T02:22:33.899Z,21.20
2018-08-01T02:25:02.360Z,21.10
2018-08-01T02:27:30.813Z,21.10
2018-08-01T02:29:59.283Z,21.00
2018-08-01T02:32:27.843Z,20.90
2018-08-01T02:34:56.302Z,21.00
2018-08-01T02:37:24.972Z,21.10
2018-08-01T02:39:54.133Z,21.10
2018-08-01T02:42:22.588Z,21.10
2018-08-01T02:44:51.109Z,21.10
2018-08-01T02:47:19.616Z,21.20
2018-08-01T02:49:48.092Z,21.20
2018-08-01T02:52:16.557Z,21.30
2018-08-01T02:54:45.060Z,21.30
2018-08-01T02:57:13.544Z,21.30
2018-08-01T02:59:42.032Z,21.30
2018-08-01T03:02:10.476Z,21.40
2018-08-01T03:04:38.994Z,21.40
2018-08-01T03:07:07.650Z,21.40
2018-08-01T03:09:36.280Z,21.40
2018-08-01T03:12:05.276Z,21.40
2018-08-01T03:14:34.208Z,21.40
2018-08-01T03:17:02.675Z,21.50
2018-08-01T03:19:31.161Z,21.60
2018-08-01T03:21:59.872Z,21.70
2018-08-01T03:24:28.352Z,21.80
2018-08-01T03:26:56.851Z,21.80
2018-08-01T03:29:25.686Z,21.90
2018-08-01T03:31:54.159Z,21.80
2018-08-01T03:34:22.609Z,21.80
2018-08-01T03:36:51.123Z,21.70
2018-08-01T03:39:19.707Z,21.70
2018-08-01T03:41:48.180Z,21.90
2018-08-01T03:44:16.676Z,21.90
2018-08-01T03:46:45.320Z,21.90
2018-08-01T03:49:13.782Z,21.90
2018-08-01T03:51:42.246Z,21.80
2018-08-01T03:56:39.911Z,21.60
2018-08-01T03:59:09.127Z,21.60
2018-08-01T04:01:37.594Z,21.30
2018-08-01T04:04:06.119Z,21.00
2018-08-01T04:06:34.590Z,20.70
2018-08-01T04:09:03.178Z,20.50
2018-08-01T04:11:31.686Z,20.40
2018-08-01T04:14:00.139Z,20.40
2018-08-01T04:16:28.668Z,20.40
2018-08-01T04:18:57.154Z,20.40
2018-08-01T04:21:25.622Z,20.30
2018-08-01T04:23:54.093Z,20.10
2018-08-01T04:26:22.614Z,20.10
2018-08-01T04:28:51.094Z,20.10
2018-08-01T04:31:19.540Z,20.00
2018-08-01T04:33:48.050Z,20.00
2018-08-01T04:36:16.535Z,19.90
2018-08-01T04:38:45.007Z,19.90
2018-08-01T04:41:13.528Z,19.90
2018-08-01T04:43:41.983Z,19.90
2018-08-01T04:46:10.432Z,19.90
2018-08-01T04:48:38.958Z,19.80
2018-08-01T04:51:07.707Z,19.80
2018-08-01T04:53:36.194Z,19.80
2018-08-01T04:56:04.916Z,19.70
2018-08-01T04:58:33.407Z,19.90
2018-08-01T05:01:02.003Z,20.00
2018-08-01T05:03:30.481Z,20.00
2018-08-01T05:05:59.035Z,20.20
2018-08-01T05:08:27.634Z,20.40
2018-08-01T05:10:56.229Z,20.40
2018-08-01T05:13:24.719Z,20.60
2018-08-01T05:18:21.523Z,20.70
2018-08-01T05:20:50.055Z,20.70
2018-08-01T05:23:18.560Z,20.80
2018-08-01T05:25:47.037Z,20.90
2018-08-01T05:28:15.563Z,20.90
2018-08-01T05:30:44.107Z,20.80
2018-08-01T05:33:12.608Z,20.90
2018-08-01T05:35:41.080Z,20.90
2018-08-01T05:38:09.573Z,20.90
2018-08-01T05:40:38.059Z,20.80
2018-08-01T05:43:06.557Z,20.80
2018-08-01T05:45:35.018Z,20.70
2018-08-01T05:48:03.490Z,20.50
2018-08-01T05:50:31.988Z,20.40
2018-08-01T05:53:00.487Z,20.60
2018-08-01T05:55:28.987Z,20.50
2018-08-01T05:57:57.515Z,20.50
2018-08-01T06:00:26.014Z,20.50
2018-08-01T06:02:54.489Z,20.60
2018-08-01T06:05:22.973Z,20.60
2018-08-01T06:07:51.417Z,20.80
2018-08-01T06:10:19.899Z,21.00
2018-08-01T06:12:48.342Z,21.10
2018-08-01T06:15:16.876Z,21.20
2018-08-01T06:17:45.367Z,21.40
2018-08-01T06:20:14.377Z,21.70
2018-08-01T06:22:42.859Z,21.80
2018-08-01T06:25:11.360Z,22.00
2018-08-01T06:27:39.864Z,22.00
2018-08-01T06:30:08.452Z,22.30
2018-08-01T06:32:36.930Z,22.60
2018-08-01T06:35:05.547Z,22.90
2018-08-01T06:37:34.035Z,23.30
2018-08-01T06:40:02.525Z,23.50
2018-08-01T06:42:31.403Z,23.90
2018-08-01T06:44:59.892Z,24.30
2018-08-01T06:47:28.413Z,24.60
2018-08-01T06:49:56.949Z,25.10
2018-08-01T06:52:25.490Z,25.70
2018-08-01T06:54:53.952Z,26.00
2018-08-01T06:57:22.463Z,26.50
2018-08-01T06:59:50.913Z,26.80
2018-08-01T07:02:19.409Z,27.00
2018-08-01T07:04:47.874Z,27.10
2018-08-01T07:07:16.403Z,26.80
2018-08-01T07:09:44.883Z,26.40
2018-08-01T07:12:16.651Z,25.60
2018-08-01T07:14:46.126Z,25.30
2018-08-01T07:17:14.596Z,25.00
2018-08-01T07:19:43.117Z,25.20
2018-08-01T07:22:11.684Z,25.10
2018-08-01T07:24:40.157Z,25.00
2018-08-01T07:27:08.650Z,24.80
2018-08-01T07:29:37.158Z,24.70
2018-08-01T07:32:05.660Z,24.80
2018-08-01T07:34:34.376Z,24.90
2018-08-01T07:37:02.917Z,24.90
2018-08-01T07:39:31.405Z,25.00
2018-08-01T07:41:59.885Z,25.20
2018-08-01T07:44:28.430Z,25.40
2018-08-01T07:46:57.512Z,25.40
2018-08-01T07:49:26.018Z,25.30
2018-08-01T07:51:54.546Z,25.60
2018-08-01T07:54:23.021Z,25.60
2018-08-01T07:56:51.520Z,26.00
2018-08-01T07:59:19.973Z,26.00
2018-08-01T08:01:48.519Z,25.80
2018-08-01T08:04:17.011Z,25.70
2018-08-01T08:06:45.515Z,25.50
2018-08-01T08:09:14.210Z,26.00
2018-08-01T08:11:42.786Z,26.00
2018-08-01T08:14:11.265Z,26.40
2018-08-01T08:16:40.125Z,26.60
2018-08-01T08:19:08.694Z,26.50
2018-08-01T08:21:37.330Z,26.60
2018-08-01T08:24:05.865Z,26.70
2018-08-01T08:26:34.358Z,27.10
2018-08-01T08:29:03.048Z,27.50
2018-08-01T08:31:31.534Z,28.20
2018-08-01T08:34:00.032Z,28.00
2018-08-01T08:36:28.532Z,28.80
2018-08-01T08:38:57.051Z,28.80
2018-08-01T08:41:25.573Z,29.30
2018-08-01T08:43:54.156Z,30.50
2018-08-01T08:46:22.656Z,31.20
2018-08-01T08:48:51.293Z,32.70
2018-08-01T08:51:19.850Z,33.10
2018-08-01T08:53:48.494Z,34.00
2018-08-01T08:56:17.193Z,34.00
2018-08-01T08:58:45.717Z,34.40
2018-08-01T09:01:14.328Z,35.10
2018-08-01T09:03:42.834Z,35.20
2018-08-01T09:06:11.724Z,36.40
2018-08-01T09:08:40.313Z,36.10
2018-08-01T09:11:09.266Z,36.30
2018-08-01T09:13:37.835Z,36.50
2018-08-01T09:16:06.517Z,37.40
2018-08-01T09:18:35.081Z,38.30
2018-08-01T09:21:04.239Z,37.70
2018-08-01T09:23:32.811Z,37.20
2018-08-01T09:26:01.312Z,37.80
2018-08-01T09:28:30.157Z,38.30
2018-08-01T09:30:58.630Z,39.30
2018-08-01T09:33:27.477Z,39.40
2018-08-01T09:35:56.034Z,38.00
2018-08-01T09:38:24.654Z,39.00
2018-08-01T09:40:53.183Z,37.70
2018-08-01T09:43:21.694Z,36.90
2018-08-01T09:45:50.575Z,37.90
2018-08-01T09:48:19.123Z,37.60
2018-08-01T09:50:47.598Z,38.50
2018-08-01T09:53:16.359Z,38.80
2018-08-01T09:56:17.740Z,39.10
2018-08-01T09:58:46.205Z,39.70
2018-08-01T10:01:31.419Z,41.60
2018-08-01T10:03:59.953Z,41.30
2018-08-01T10:08:57.519Z,38.80
2018-08-01T10:11:26.082Z,37.90
2018-08-01T10:13:54.562Z,37.80
2018-08-01T10:16:23.069Z,38.50
2018-08-01T10:18:51.750Z,37.90
2018-08-01T10:23:53.741Z,38.50
2018-08-01T10:26:22.238Z,38.40
2018-08-01T10:28:50.829Z,39.00
2018-08-01T10:31:19.354Z,39.70
2018-08-01T10:33:47.840Z,40.80
2018-08-01T10:36:16.303Z,41.90
2018-08-01T10:38:44.793Z,41.90
2018-08-01T10:41:13.355Z,41.60
2018-08-01T10:43:41.938Z,42.00
2018-08-01T10:46:10.393Z,42.60
2018-08-01T10:48:38.900Z,42.30
2018-08-01T10:51:07.406Z,41.10
2018-08-01T10:53:36.021Z,40.40
2018-08-01T10:56:04.518Z,39.80
2018-08-01T10:58:33.009Z,39.70
2018-08-01T11:01:01.471Z,40.20
2018-08-01T11:03:29.952Z,40.50
2018-08-01T11:05:58.504Z,40.30
2018-08-01T11:08:27.103Z,40.10
2018-08-01T11:10:55.687Z,39.70
2018-08-01T11:13:30.403Z,39.10
2018-08-01T11:15:58.886Z,38.50
2018-08-01T11:18:27.433Z,37.90
2018-08-01T11:20:55.943Z,37.40
2018-08-01T11:23:24.499Z,37.40
2018-08-01T11:25:53.191Z,37.10
2018-08-01T11:28:21.722Z,36.50
2018-08-01T11:30:50.414Z,36.00
2018-08-01T11:33:19.250Z,36.00
2018-08-01T11:35:47.784Z,35.90
2018-08-01T11:38:16.256Z,35.70
2018-08-01T11:40:44.749Z,35.50
2018-08-01T11:43:13.264Z,35.50
2018-08-01T11:45:41.741Z,35.90
2018-08-01T11:48:10.272Z,35.80
2018-08-01T11:50:38.868Z,35.40
2018-08-01T11:53:07.461Z,35.40
2018-08-01T11:55:36.063Z,34.90
2018-08-01T11:58:04.594Z,35.00
2018-08-01T12:00:33.081Z,35.10
2018-08-01T12:03:02.483Z,35.00
2018-08-01T12:05:31.010Z,35.00
2018-08-01T12:07:59.496Z,34.80
2018-08-01T12:10:28.668Z,34.80
2018-08-01T12:12:58.138Z,34.70
2018-08-01T12:15:26.699Z,34.50
2018-08-01T12:17:55.212Z,34.20
2018-08-01T12:20:23.908Z,34.20
2018-08-01T12:22:52.355Z,34.20
2018-08-01T12:25:20.928Z,34.20
2018-08-01T12:27:49.407Z,34.10
2018-08-01T12:30:17.904Z,34.30
2018-08-01T12:32:46.487Z,34.60
2018-08-01T12:35:15.000Z,34.50
2018-08-01T12:37:43.572Z,34.40
2018-08-01T12:40:13.699Z,34.10
2018-08-01T12:42:42.688Z,34.00
2018-08-01T12:47:39.520Z,33.70
2018-08-01T12:50:08.833Z,33.70
2018-08-01T12:52:37.378Z,33.90
2018-08-01T12:55:05.942Z,33.60
2018-08-01T12:57:34.430Z,33.90
2018-08-01T13:00:02.964Z,34.00
2018-08-01T13:02:31.588Z,34.20
2018-08-01T13:05:00.110Z,34.20
2018-08-01T13:07:28.595Z,34.00
2018-08-01T13:09:57.209Z,34.10
2018-08-01T13:12:25.748Z,34.00
2018-08-01T13:14:54.263Z,33.70
2018-08-01T13:17:22.807Z,34.00
2018-08-01T13:19:51.330Z,34.00
2018-08-01T13:22:19.830Z,34.00
2018-08-01T13:24:48.319Z,34.00
2018-08-01T13:27:16.905Z,33.50
2018-08-01T13:29:45.445Z,33.50
2018-08-01T13:32:13.976Z,33.60
2018-08-01T13:34:42.456Z,33.60
2018-08-01T13:37:10.962Z,33.70
2018-08-01T13:39:39.461Z,33.60
2018-08-01T13:42:08.103Z,33.40
2018-08-01T13:44:36.666Z,33.30
2018-08-01T13:47:05.202Z,33.30
2018-08-01T13:49:33.734Z,33.30
2018-08-01T13:52:02.217Z,33.20
2018-08-01T13:54:30.726Z,33.30
2018-08-01T13:56:59.213Z,33.30
2018-08-01T13:59:27.875Z,32.90
2018-08-01T14:01:56.431Z,32.60
2018-08-01T14:04:24.984Z,32.50
2018-08-01T14:06:53.590Z,32.40
2018-08-01T14:09:22.121Z,32.20
2018-08-01T14:14:18.879Z,31.90
2018-08-01T14:16:47.391Z,31.60
2018-08-01T14:19:15.973Z,31.30
2018-08-01T14:21:44.433Z,31.20
2018-08-01T14:24:12.962Z,31.10
2018-08-01T14:26:41.442Z,30.90
2018-08-01T14:29:10.048Z,30.80
2018-08-01T14:31:39.168Z,30.80
2018-08-01T14:34:07.806Z,30.40
2018-08-01T14:36:36.338Z,30.50
2018-08-01T14:39:07.690Z,30.30
2018-08-01T14:41:36.421Z,30.20
2018-08-01T14:44:05.667Z,30.00
2018-08-01T14:46:34.163Z,29.80
2018-08-01T14:49:03.210Z,29.70
2018-08-01T14:51:32.126Z,29.80
2018-08-01T14:54:01.451Z,30.00
2018-08-01T14:56:30.580Z,30.00
2018-08-01T14:58:59.447Z,29.80
2018-08-01T15:01:27.986Z,29.60
2018-08-01T15:03:56.665Z,29.70
2018-08-01T15:06:25.208Z,29.70
2018-08-01T15:08:53.911Z,29.70
2018-08-01T15:11:22.676Z,29.70
2018-08-01T15:13:51.532Z,29.50
2018-08-01T15:16:20.062Z,29.40
2018-08-01T15:18:48.587Z,29.50
2018-08-01T15:21:17.174Z,29.60
2018-08-01T15:23:45.711Z,29.80
2018-08-01T15:26:14.967Z,30.00
2018-08-01T15:28:43.109Z,30.10
2018-08-01T15:31:11.687Z,30.00
2018-08-01T15:33:41.014Z,30.00
2018-08-01T15:36:09.495Z,30.00
2018-08-01T15:38:38.021Z,30.20
2018-08-01T15:41:06.749Z,30.40
2018-08-01T15:43:35.267Z,30.10
2018-08-01T15:46:03.841Z,30.10
2018-08-01T15:48:33.805Z,29.70
2018-08-01T15:51:02.965Z,29.50
2018-08-01T15:53:31.786Z,29.30
2018-08-01T15:56:00.410Z,29.30
2018-08-01T15:58:29.056Z,29.00
2018-08-01T16:00:57.734Z,28.60
2018-08-01T16:03:26.532Z,28.40
2018-08-01T16:05:55.102Z,28.40
2018-08-01T16:08:23.654Z,28.50
2018-08-01T16:10:52.151Z,28.40
2018-08-01T16:13:20.655Z,28.20
2018-08-01T16:15:49.172Z,28.10
2018-08-01T16:18:17.652Z,27.90
2018-08-01T16:23:14.642Z,27.90
2018-08-01T16:25:43.159Z,28.20
2018-08-01T16:28:11.766Z,28.30
2018-08-01T16:30:40.276Z,28.00
2018-08-01T16:33:08.787Z,27.60
2018-08-01T16:35:37.366Z,27.60
2018-08-01T16:38:06.201Z,27.30
2018-08-01T16:40:35.031Z,27.10
2018-08-01T16:43:03.592Z,27.10
2018-08-01T16:48:04.481Z,27.00
2018-08-01T16:50:33.931Z,26.90
2018-08-01T16:53:03.469Z,26.90
2018-08-01T16:55:32.655Z,26.90
2018-08-01T16:58:03.365Z,26.80
2018-08-01T17:00:32.476Z,26.90
2018-08-01T17:03:01.729Z,27.00
2018-08-01T17:05:31.419Z,27.00
2018-08-01T17:08:00.871Z,27.00
2018-08-01T17:10:29.826Z,27.10
2018-08-01T17:12:58.637Z,26.80
2018-08-01T17:15:27.198Z,26.70
2018-08-01T17:17:55.817Z,26.50
2018-08-01T17:20:24.425Z,26.50
2018-08-01T17:22:52.953Z,26.50
2018-08-01T17:25:21.539Z,26.30
2018-08-01T17:27:50.064Z,26.10
2018-08-01T17:30:18.644Z,26.00
2018-08-01T17:32:47.150Z,26.00
2018-08-01T17:35:15.749Z,25.90
2018-08-01T17:37:44.245Z,25.80
2018-08-01T17:40:12.772Z,25.80
2018-08-01T17:42:41.278Z,25.60
2018-08-01T17:45:09.810Z,25.50
2018-08-01T17:47:38.342Z,25.30
2018-08-01T17:50:06.988Z,25.30
2018-08-01T17:52:35.715Z,25.20
2018-08-01T17:55:04.301Z,25.10
2018-08-01T17:57:32.864Z,25.10
2018-08-01T18:00:01.410Z,25.10
2018-08-01T18:02:30.336Z,25.00
2018-08-01T18:04:58.951Z,25.00
2018-08-01T18:07:27.487Z,24.90
2018-08-01T18:09:56.155Z,24.80
2018-08-01T18:12:24.776Z,24.80
2018-08-01T18:14:53.318Z,24.80
2018-08-01T18:17:21.830Z,24.70
2018-08-01T18:19:51.266Z,24.70
2018-08-01T18:22:20.106Z,24.70
2018-08-01T18:24:48.825Z,24.70
2018-08-01T18:27:17.343Z,24.60
2018-08-01T18:29:46.667Z,24.60
2018-08-01T18:32:15.585Z,24.50
2018-08-01T18:34:44.322Z,24.50
2018-08-01T18:37:13.028Z,24.50
2018-08-01T18:39:41.636Z,24.40
2018-08-01T18:42:10.194Z,24.40
2018-08-01T18:44:38.779Z,24.40
2018-08-01T18:47:07.364Z,24.40
2018-08-01T18:49:35.958Z,24.40
2018-08-01T18:52:04.458Z,24.30
2018-08-01T18:54:32.950Z,24.30
2018-08-01T18:57:01.457Z,24.20
2018-08-01T18:59:29.949Z,24.20
2018-08-01T19:01:59.390Z,24.20
2018-08-01T19:04:28.355Z,24.20
2018-08-01T19:06:56.860Z,24.10
2018-08-01T19:09:25.626Z,24.10
2018-08-01T19:11:54.313Z,24.10
2018-08-01T19:14:23.266Z,24.00
2018-08-01T19:16:52.063Z,23.90
2018-08-01T19:19:20.726Z,23.90
2018-08-01T19:21:49.382Z,23.80
2018-08-01T19:24:18.093Z,23.90
2018-08-01T19:26:46.646Z,23.90
2018-08-01T19:29:15.190Z,23.90
2018-08-01T19:31:43.867Z,23.70
2018-08-01T19:34:12.587Z,23.70
2018-08-01T19:36:41.362Z,23.70
2018-08-01T19:39:10.950Z,23.60
2018-08-01T19:41:39.855Z,23.60
2018-08-01T19:44:08.447Z,23.50
2018-08-01T19:46:37.263Z,23.40
2018-08-01T19:49:06.274Z,23.50
2018-08-01T19:51:35.338Z,23.40
2018-08-01T19:54:05.004Z,23.40
2018-08-01T19:56:33.640Z,23.40
2018-08-01T19:59:01.603Z,23.50
2018-08-01T20:01:30.131Z,23.40
2018-08-01T20:03:58.714Z,23.50
2018-08-01T20:06:27.183Z,23.50
2018-08-01T20:08:55.749Z,23.50
2018-08-01T20:11:24.734Z,23.60
2018-08-01T20:13:59.916Z,23.70
2018-08-01T20:16:28.629Z,23.60
2018-08-01T20:18:58.093Z,23.60
2018-08-01T20:21:26.618Z,23.60
2018-08-01T20:23:55.354Z,23.60
2018-08-01T20:26:23.879Z,23.60
2018-08-01T20:28:52.455Z,23.60
2018-08-01T20:31:21.010Z,23.60
2018-08-01T20:33:49.598Z,23.60
2018-08-01T20:36:18.251Z,23.50
2018-08-01T20:38:46.746Z,23.40
2018-08-01T20:41:16.175Z,23.30
2018-08-01T20:43:45.102Z,23.40
2018-08-01T20:46:13.580Z,23.30
2018-08-01T20:48:42.118Z,23.20
2018-08-01T20:51:10.718Z,23.30
2018-08-01T20:53:39.310Z,23.30
2018-08-01T20:56:07.980Z,23.40
2018-08-01T20:58:36.491Z,23.40
2018-08-01T21:01:05.068Z,23.40
2018-08-01T21:03:33.566Z,23.40
2018-08-01T21:06:02.227Z,23.40
2018-08-01T21:08:30.876Z,23.40
2018-08-01T21:10:59.361Z,23.40
2018-08-01T21:13:27.886Z,23.40
2018-08-01T21:15:56.540Z,23.40
2018-08-01T21:18:25.013Z,23.40
2018-08-01T21:20:53.531Z,23.20
2018-08-01T21:23:22.056Z,23.20
2018-08-01T21:25:50.756Z,23.20
2018-08-01T21:28:19.305Z,23.10
2018-08-01T21:30:47.792Z,23.20
2018-08-01T21:33:16.354Z,23.20
2018-08-01T21:35:44.937Z,23.10
2018-08-01T21:38:13.392Z,22.90
2018-08-01T21:40:41.997Z,22.60
2018-08-01T21:43:10.465Z,22.40
2018-08-01T21:45:38.958Z,22.10
2018-08-01T21:48:07.454Z,21.90
2018-08-01T21:50:35.930Z,21.60
2018-08-01T21:53:04.441Z,21.50
2018-08-01T21:55:33.010Z,21.30
2018-08-01T21:58:01.557Z,21.20
2018-08-01T22:00:34.198Z,21.10
2018-08-01T22:03:02.707Z,20.90
2018-08-01T22:05:31.146Z,20.60
2018-08-01T22:07:59.599Z,20.50
2018-08-01T22:10:28.087Z,20.60
2018-08-01T22:12:56.538Z,20.50
2018-08-01T22:15:25.062Z,20.40
2018-08-01T22:17:53.631Z,20.30
2018-08-01T22:20:22.111Z,20.30
2018-08-01T22:22:50.595Z,20.30
2018-08-01T22:25:19.178Z,20.10
2018-08-01T22:27:47.656Z,20.10
2018-08-01T22:30:16.145Z,20.00
2018-08-01T22:32:44.615Z,19.90
2018-08-01T22:35:13.084Z,19.70
2018-08-01T22:37:41.550Z,19.50
2018-08-01T22:40:10.005Z,19.40
2018-08-01T22:42:38.585Z,19.20
2018-08-01T22:45:07.278Z,19.10
2018-08-01T22:47:35.732Z,18.90
2018-08-01T22:50:04.966Z,18.90
2018-08-01T22:52:33.572Z,19.00
2018-08-01T22:55:02.072Z,19.00
2018-08-01T22:57:31.087Z,19.10
2018-08-01T22:59:59.648Z,19.20
2018-08-01T23:02:28.144Z,19.30
2018-08-01T23:04:56.616Z,19.30
2018-08-01T23:07:25.095Z,19.30
2018-08-01T23:09:53.768Z,19.30
2018-08-01T23:12:22.263Z,19.30
2018-08-01T23:14:50.718Z,19.20
2018-08-01T23:17:19.203Z,19.20
2018-08-01T23:19:47.847Z,19.20
2018-08-01T23:22:16.451Z,19.10
2018-08-01T23:24:45.027Z,19.20
2018-08-01T23:27:13.498Z,19.20
2018-08-01T23:29:42.081Z,19.00
2018-08-01T23:32:10.566Z,18.80
2018-08-01T23:34:39.019Z,18.80
2018-08-01T23:37:07.504Z,18.80
2018-08-01T23:39:36.111Z,18.70
2018-08-01T23:42:04.778Z,18.70
2018-08-01T23:44:33.288Z,18.70
2018-08-01T23:47:01.784Z,18.70
2018-08-01T23:49:30.281Z,18.80
2018-08-01T23:54:26.855Z,18.80
2018-08-01T23:56:55.302Z,18.90
2018-08-01T23:59:23.799Z,18.80
